createdAt,value
2024-03-12T00:00:01.701Z,12.90
2024-03-12T00:00:35.105Z,14.90
2024-03-12T00:01:31.045Z,13.90
2024-03-12T00:02:08.796Z,15.50
2024-03-12T00:02:45.945Z,13.30
2024-03-12T00:03:19.130Z,12.50
2024-03-12T00:03:52.262Z,15.10
2024-03-12T00:04:25.607Z,16.30
2024-03-12T00:04:59.137Z,16.40
2024-03-12T00:05:32.148Z,13.40
2024-03-12T00:06:06.840Z,14.20
2024-03-12T00:06:43.331Z,14.40
2024-03-12T00:07:18.106Z,14.60
2024-03-12T00:07:52.108Z,13.40
2024-03-12T00:08:24.989Z,15.00
2024-03-12T00:08:58.109Z,15.60
2024-03-12T00:09:31.216Z,13.50
2024-03-12T00:10:06.377Z,13.50
2024-03-12T00:10:39.689Z,13.80
2024-03-12T00:11:12.716Z,14.60
2024-03-12T00:11:46.737Z,12.70
2024-03-12T00:12:19.662Z,13.50
2024-03-12T00:12:54.151Z,14.30
2024-03-12T00:13:27.720Z,13.50
2024-03-12T00:14:01.118Z,14.30
2024-03-12T00:14:34.968Z,13.70
2024-03-12T00:15:08.486Z,13.60
2024-03-12T00:15:42.811Z,14.40
2024-03-12T00:16:15.929Z,15.00
2024-03-12T00:16:49.008Z,15.70
2024-03-12T00:17:25.432Z,12.70
2024-03-12T00:17:59.562Z,14.00
2024-03-12T00:18:34.560Z,12.80
2024-03-12T00:19:10.602Z,13.60
2024-03-12T00:19:43.638Z,15.70
2024-03-12T00:20:19.387Z,14.60
2024-03-12T00:20:55.693Z,13.10
2024-03-12T00:21:29.268Z,13.70
2024-03-12T00:22:02.270Z,15.60
2024-03-12T00:22:35.922Z,12.40
2024-03-12T00:23:09.154Z,14.70
2024-03-12T00:23:43.417Z,16.60
2024-03-12T00:24:16.593Z,12.90
2024-03-12T00:24:50.992Z,14.10
2024-03-12T00:25:24.233Z,15.40
2024-03-12T00:25:57.556Z,14.10
2024-03-12T00:26:32.383Z,13.80
2024-03-12T00:27:07.234Z,13.00
2024-03-12T00:27:41.390Z,14.90
2024-03-12T00:28:14.474Z,12.80
2024-03-12T00:28:49.949Z,13.40
2024-03-12T00:29:22.983Z,14.30
2024-03-12T00:29:56.574Z,12.70
2024-03-12T00:30:32.171Z,12.40
2024-03-12T00:31:06.413Z,14.10
2024-03-12T00:31:39.869Z,12.80
2024-03-12T00:32:13.621Z,14.00
2024-03-12T00:32:48.741Z,13.00
2024-03-12T00:33:22.102Z,14.00
2024-03-12T00:33:56.680Z,12.90
2024-03-12T00:34:31.141Z,12.00
2024-03-12T00:35:04.686Z,14.30
2024-03-12T00:35:40.119Z,13.30
2024-03-12T00:36:13.490Z,13.20
2024-03-12T00:36:47.111Z,12.80
2024-03-12T00:37:21.702Z,12.90
2024-03-12T00:37:55.686Z,12.40
2024-03-12T00:38:30.292Z,14.90
2024-03-12T00:39:03.991Z,13.30
2024-03-12T00:39:37.458Z,13.80
2024-03-12T00:40:12.687Z,12.90
2024-03-12T00:40:49.439Z,15.10
2024-03-12T00:41:22.560Z,13.40
2024-03-12T00:41:57.717Z,13.20
2024-03-12T00:42:30.669Z,13.00
2024-03-12T00:43:04.701Z,12.70
2024-03-12T00:43:37.882Z,12.50
2024-03-12T00:44:11.114Z,13.30
2024-03-12T00:44:44.680Z,12.70
2024-03-12T00:45:36.394Z,12.60
2024-03-12T00:46:11.420Z,13.70
2024-03-12T00:46:44.572Z,13.30
2024-03-12T00:47:17.778Z,12.60
2024-03-12T00:47:50.928Z,12.30
2024-03-12T00:48:25.159Z,14.70
2024-03-12T00:49:01.011Z,13.60
2024-03-12T00:49:34.095Z,12.90
2024-03-12T00:50:08.943Z,14.00
2024-03-12T00:50:43.632Z,12.60
2024-03-12T00:51:16.829Z,14.50
2024-03-12T00:51:50.054Z,13.50
2024-03-12T00:52:23.797Z,13.00
2024-03-12T00:52:56.842Z,13.10
2024-03-12T00:53:31.043Z,12.90
2024-03-12T00:54:05.280Z,14.30
2024-03-12T00:54:38.623Z,13.30
2024-03-12T00:55:19.873Z,12.20
2024-03-12T00:55:54.445Z,13.30
2024-03-12T00:56:28.785Z,12.60
2024-03-12T00:57:01.817Z,12.40
2024-03-12T00:57:50.982Z,14.20
2024-03-12T00:58:24.851Z,14.80
2024-03-12T00:58:57.794Z,13.80
2024-03-12T00:59:30.843Z,13.40
2024-03-12T01:00:04.728Z,13.00
2024-03-12T01:00:38.345Z,13.20
2024-03-12T01:01:15.939Z,13.10
2024-03-12T01:01:58.415Z,13.30
2024-03-12T01:02:34.508Z,12.40
2024-03-12T01:03:09.836Z,12.60
2024-03-12T01:03:47.970Z,15.40
2024-03-12T01:04:24.792Z,12.10
2024-03-12T01:05:01.060Z,14.20
2024-03-12T01:05:37.427Z,13.70
2024-03-12T01:06:12.898Z,15.50
2024-03-12T01:06:50.654Z,18.20
2024-03-12T01:07:23.769Z,17.50
2024-03-12T01:07:59.873Z,15.70
2024-03-12T01:08:33.004Z,17.40
2024-03-12T01:09:07.507Z,19.30
2024-03-12T01:09:40.808Z,14.30
2024-03-12T01:10:13.906Z,13.50
2024-03-12T01:10:49.022Z,14.30
2024-03-12T01:11:24.073Z,15.10
2024-03-12T01:11:57.215Z,13.10
2024-03-12T01:12:30.584Z,13.10
2024-03-12T01:13:07.688Z,16.50
2024-03-12T01:13:41.507Z,12.70
2024-03-12T01:14:16.149Z,11.60
2024-03-12T01:14:49.262Z,15.00
2024-03-12T01:15:24.997Z,12.60
2024-03-12T01:15:59.173Z,13.10
2024-03-12T01:16:34.823Z,13.00
2024-03-12T01:17:08.079Z,12.50
2024-03-12T01:17:49.977Z,12.40
2024-03-12T01:18:23.069Z,14.00
2024-03-12T01:18:57.765Z,15.50
2024-03-12T01:19:32.863Z,12.70
2024-03-12T01:20:10.666Z,14.40
2024-03-12T01:20:45.195Z,13.60
2024-03-12T01:21:18.256Z,13.60
2024-03-12T01:21:54.586Z,13.60
2024-03-12T01:22:28.229Z,14.10
2024-03-12T01:23:01.377Z,12.10
2024-03-12T01:23:34.360Z,13.50
2024-03-12T01:24:08.567Z,12.60
2024-03-12T01:24:44.701Z,14.50
2024-03-12T01:25:17.953Z,12.90
2024-03-12T01:25:51.010Z,18.60
2024-03-12T01:26:27.036Z,13.50
2024-03-12T01:27:00.222Z,13.20
2024-03-12T01:27:34.813Z,16.60
2024-03-12T01:28:11.509Z,13.40
2024-03-12T01:28:44.884Z,14.00
2024-03-12T01:29:19.074Z,14.30
2024-03-12T01:29:52.179Z,13.20
2024-03-12T01:30:28.882Z,15.10
2024-03-12T01:31:02.332Z,14.00
2024-03-12T01:31:35.369Z,13.70
2024-03-12T01:32:10.524Z,13.10
2024-03-12T01:32:46.951Z,13.70
2024-03-12T01:33:20.764Z,13.00
2024-03-12T01:33:53.860Z,13.10
2024-03-12T01:34:30.013Z,13.00
2024-03-12T01:35:05.071Z,12.50
2024-03-12T01:35:41.922Z,13.50
2024-03-12T01:36:22.113Z,13.60
2024-03-12T01:36:55.535Z,13.30
2024-03-12T01:37:31.056Z,13.50
2024-03-12T01:38:04.369Z,13.50
2024-03-12T01:38:37.426Z,18.30
2024-03-12T01:39:26.426Z,14.20
2024-03-12T01:39:59.629Z,12.70
2024-03-12T01:40:32.677Z,13.90
2024-03-12T01:41:06.624Z,15.40
2024-03-12T01:41:43.075Z,13.50
2024-03-12T01:42:16.821Z,13.60
2024-03-12T01:42:55.022Z,13.40
2024-03-12T01:43:29.302Z,13.70
2024-03-12T01:44:07.550Z,12.60
2024-03-12T01:44:40.876Z,14.50
2024-03-12T01:45:17.094Z,14.50
2024-03-12T01:45:50.095Z,13.80
2024-03-12T01:46:23.265Z,16.30
2024-03-12T01:46:56.310Z,14.60
2024-03-12T01:47:30.384Z,12.40
2024-03-12T01:48:12.265Z,14.90
2024-03-12T01:48:45.908Z,14.80
2024-03-12T01:49:19.075Z,15.60
2024-03-12T01:49:52.045Z,13.20
2024-03-12T01:50:28.519Z,13.40
2024-03-12T01:51:01.490Z,15.90
2024-03-12T01:51:34.499Z,15.90
2024-03-12T01:52:09.093Z,13.20
2024-03-12T01:52:52.120Z,15.30
2024-03-12T01:53:35.144Z,14.30
2024-03-12T01:54:10.016Z,15.70
2024-03-12T01:54:45.114Z,16.70
2024-03-12T01:55:19.994Z,15.00
2024-03-12T01:55:53.297Z,15.20
2024-03-12T01:56:26.323Z,14.40
2024-03-12T01:56:59.387Z,16.90
2024-03-12T01:57:32.390Z,16.10
2024-03-12T01:58:05.580Z,15.90
2024-03-12T01:58:38.489Z,15.70
2024-03-12T01:59:13.934Z,14.50
2024-03-12T01:59:46.776Z,16.40
2024-03-12T02:00:19.915Z,15.50
2024-03-12T02:00:53.169Z,14.80
2024-03-12T02:01:26.781Z,14.50
2024-03-12T02:02:03.182Z,16.80
2024-03-12T02:02:36.402Z,15.40
2024-03-12T02:03:10.340Z,13.70
2024-03-12T02:03:44.362Z,17.80
2024-03-12T02:04:17.589Z,14.90
2024-03-12T02:04:51.624Z,16.20
2024-03-12T02:05:24.673Z,14.50
2024-03-12T02:05:58.369Z,15.40
2024-03-12T02:06:31.350Z,15.10
2024-03-12T02:07:05.322Z,13.60
2024-03-12T02:07:39.990Z,15.30
2024-03-12T02:08:13.245Z,15.60
2024-03-12T02:08:47.573Z,14.50
2024-03-12T02:09:22.373Z,14.00
2024-03-12T02:09:55.521Z,16.80
2024-03-12T02:10:28.496Z,14.70
2024-03-12T02:11:01.881Z,14.80
2024-03-12T02:11:35.148Z,15.10
2024-03-12T02:12:08.923Z,14.40
2024-03-12T02:12:42.801Z,13.10
2024-03-12T02:13:16.308Z,15.40
2024-03-12T02:13:52.380Z,15.40
2024-03-12T02:14:25.446Z,14.20
2024-03-12T02:15:04.156Z,14.80
2024-03-12T02:15:37.181Z,15.10
2024-03-12T02:16:11.146Z,15.90
2024-03-12T02:16:45.036Z,16.40
2024-03-12T02:17:18.289Z,14.10
2024-03-12T02:17:54.451Z,14.30
2024-03-12T02:18:27.573Z,15.90
2024-03-12T02:19:00.698Z,14.90
2024-03-12T02:19:35.225Z,15.50
2024-03-12T02:20:11.605Z,14.30
2024-03-12T02:20:44.535Z,15.80
2024-03-12T02:21:17.775Z,15.10
2024-03-12T02:21:50.846Z,16.50
2024-03-12T02:22:27.835Z,16.90
2024-03-12T02:23:00.906Z,16.30
2024-03-12T02:23:41.246Z,17.40
2024-03-12T02:24:14.311Z,17.30
2024-03-12T02:24:48.283Z,16.30
2024-03-12T02:25:21.322Z,15.30
2024-03-12T02:25:54.317Z,15.10
2024-03-12T02:26:27.188Z,16.10
2024-03-12T02:27:01.056Z,15.50
2024-03-12T02:27:34.032Z,16.40
2024-03-12T02:28:07.549Z,14.90
2024-03-12T02:28:40.630Z,18.00
2024-03-12T02:29:14.308Z,16.30
2024-03-12T02:29:48.545Z,15.20
2024-03-12T02:30:22.160Z,15.90
2024-03-12T02:30:55.298Z,17.00
2024-03-12T02:31:28.457Z,16.10
2024-03-12T02:32:01.414Z,14.60
2024-03-12T02:32:34.382Z,17.70
2024-03-12T02:33:07.305Z,16.70
2024-03-12T02:33:41.965Z,17.40
2024-03-12T02:34:15.046Z,16.30
2024-03-12T02:34:50.496Z,19.00
2024-03-12T02:35:23.350Z,19.80
2024-03-12T02:35:56.653Z,16.90
2024-03-12T02:36:29.564Z,17.60
2024-03-12T02:37:03.372Z,16.40
2024-03-12T02:37:36.710Z,16.50
2024-03-12T02:38:10.001Z,17.20
2024-03-12T02:38:43.027Z,16.40
2024-03-12T02:39:16.303Z,16.30
2024-03-12T02:39:49.309Z,17.90
2024-03-12T02:40:22.510Z,16.20
2024-03-12T02:40:55.431Z,16.20
2024-03-12T02:41:29.104Z,16.50
2024-03-12T02:42:02.169Z,15.90
2024-03-12T02:42:35.141Z,17.30
2024-03-12T02:43:08.161Z,17.00
2024-03-12T02:43:42.484Z,16.70
2024-03-12T02:44:15.500Z,16.80
2024-03-12T02:44:48.589Z,18.30
2024-03-12T02:45:22.704Z,19.20
2024-03-12T02:45:56.405Z,19.30
2024-03-12T02:46:29.385Z,20.20
2024-03-12T02:47:04.236Z,18.30
2024-03-12T02:47:37.334Z,18.90
2024-03-12T02:48:10.856Z,19.40
2024-03-12T02:48:43.932Z,20.70
2024-03-12T02:49:18.239Z,21.20
2024-03-12T02:49:51.252Z,19.70
2024-03-12T02:50:25.688Z,20.20
2024-03-12T02:51:10.316Z,18.30
2024-03-12T02:51:51.246Z,21.00
2024-03-12T02:52:57.359Z,17.10
2024-03-12T02:53:30.700Z,18.10
2024-03-12T02:54:06.151Z,17.90
2024-03-12T02:54:47.070Z,19.10
2024-03-12T02:55:53.568Z,18.10
2024-03-12T02:56:26.868Z,17.30
2024-03-12T02:56:59.907Z,17.20
2024-03-12T02:57:33.224Z,16.50
2024-03-12T02:58:06.378Z,16.80
2024-03-12T02:58:39.562Z,16.80
2024-03-12T02:59:13.396Z,16.70
2024-03-12T02:59:46.421Z,17.40
2024-03-12T03:00:19.570Z,18.70
2024-03-12T03:00:54.848Z,18.50
2024-03-12T03:01:28.746Z,18.50
2024-03-12T03:02:02.041Z,18.60
2024-03-12T03:02:35.024Z,16.50
2024-03-12T03:03:08.296Z,16.50
2024-03-12T03:04:01.707Z,15.30
2024-03-12T03:04:38.074Z,15.20
2024-03-12T03:05:11.534Z,14.60
2024-03-12T03:05:47.948Z,18.10
2024-03-12T03:06:21.329Z,15.90
2024-03-12T03:06:58.975Z,15.00
2024-03-12T03:07:32.065Z,15.50
2024-03-12T03:08:05.065Z,14.70
2024-03-12T03:08:38.772Z,16.00
2024-03-12T03:09:11.928Z,15.70
2024-03-12T03:09:45.604Z,15.50
2024-03-12T03:10:19.044Z,15.70
2024-03-12T03:10:52.036Z,14.90
2024-03-12T03:11:25.393Z,16.40
2024-03-12T03:11:59.717Z,15.40
2024-03-12T03:12:32.872Z,14.90
2024-03-12T03:13:06.012Z,15.20
2024-03-12T03:13:39.477Z,16.20
2024-03-12T03:14:12.411Z,15.40
2024-03-12T03:14:45.420Z,14.70
2024-03-12T03:15:19.464Z,16.10
2024-03-12T03:15:53.184Z,14.40
2024-03-12T03:16:26.416Z,14.40
2024-03-12T03:16:59.528Z,16.90
2024-03-12T03:17:32.561Z,16.40
2024-03-12T03:18:05.944Z,17.60
2024-03-12T03:18:39.085Z,15.30
2024-03-12T03:19:12.241Z,16.80
2024-03-12T03:19:45.133Z,15.70
2024-03-12T03:20:18.214Z,16.20
2024-03-12T03:20:51.245Z,16.30
2024-03-12T03:21:25.385Z,18.10
2024-03-12T03:21:58.571Z,17.60
2024-03-12T03:22:31.716Z,15.60
2024-03-12T03:23:05.929Z,14.80
2024-03-12T03:23:42.551Z,15.00
2024-03-12T03:24:15.625Z,16.50
2024-03-12T03:24:48.734Z,16.30
2024-03-12T03:25:22.279Z,17.40
2024-03-12T03:25:55.450Z,15.40
2024-03-12T03:26:28.705Z,16.80
2024-03-12T03:27:01.727Z,17.20
2024-03-12T03:27:34.903Z,16.60
2024-03-12T03:28:08.087Z,15.30
2024-03-12T03:28:41.093Z,14.20
2024-03-12T03:29:14.450Z,17.10
2024-03-12T03:29:47.601Z,16.10
2024-03-12T03:30:20.736Z,18.10
2024-03-12T03:30:54.805Z,16.10
2024-03-12T03:31:28.028Z,18.40
2024-03-12T03:32:01.226Z,17.20
2024-03-12T03:32:36.687Z,17.10
2024-03-12T03:33:10.114Z,14.70
2024-03-12T03:33:48.712Z,15.70
2024-03-12T03:34:21.886Z,18.70
2024-03-12T03:34:55.097Z,17.40
2024-03-12T03:35:30.404Z,15.30
2024-03-12T03:36:06.830Z,18.00
2024-03-12T03:36:41.051Z,15.80
2024-03-12T03:37:15.223Z,15.50
2024-03-12T03:37:48.747Z,15.00
2024-03-12T03:38:22.449Z,17.60
2024-03-12T03:39:16.650Z,15.20
2024-03-12T03:39:49.951Z,16.70
2024-03-12T03:40:27.292Z,15.30
2024-03-12T03:41:00.689Z,15.90
2024-03-12T03:41:33.897Z,18.00
2024-03-12T03:42:08.072Z,15.90
2024-03-12T03:42:54.045Z,17.10
2024-03-12T03:43:27.418Z,16.40
2024-03-12T03:44:01.018Z,15.80
2024-03-12T03:44:34.297Z,17.70
2024-03-12T03:45:07.451Z,15.90
2024-03-12T03:45:40.872Z,14.70
2024-03-12T03:46:13.942Z,15.80
2024-03-12T03:46:47.278Z,17.30
2024-03-12T03:47:35.150Z,16.10
2024-03-12T03:48:08.673Z,18.10
2024-03-12T03:48:42.139Z,17.00
2024-03-12T03:49:15.473Z,15.60
2024-03-12T03:49:49.045Z,16.70
2024-03-12T03:50:22.190Z,16.90
2024-03-12T03:50:55.337Z,15.80
2024-03-12T03:51:28.333Z,16.20
2024-03-12T03:52:02.532Z,16.80
2024-03-12T03:52:35.766Z,17.60
2024-03-12T03:53:09.423Z,15.30
2024-03-12T03:53:45.295Z,20.10
2024-03-12T03:54:18.300Z,16.70
2024-03-12T03:54:52.471Z,15.40
2024-03-12T03:55:28.686Z,14.60
2024-03-12T03:56:01.791Z,15.80
2024-03-12T03:56:34.816Z,16.30
2024-03-12T03:57:10.103Z,16.60
2024-03-12T03:57:43.270Z,16.60
2024-03-12T03:58:16.452Z,16.60
2024-03-12T03:58:50.012Z,16.30
2024-03-12T03:59:23.108Z,18.00
2024-03-12T03:59:57.950Z,15.50
2024-03-12T04:00:33.649Z,17.50
2024-03-12T04:01:07.039Z,15.60
2024-03-12T04:01:40.736Z,15.90
2024-03-12T04:02:17.892Z,16.30
2024-03-12T04:02:51.207Z,15.50
2024-03-12T04:03:26.580Z,15.70
2024-03-12T04:04:09.297Z,18.20
2024-03-12T04:04:44.144Z,16.90
2024-03-12T04:05:17.732Z,17.20
2024-03-12T04:05:51.448Z,16.30
2024-03-12T04:06:24.848Z,19.70
2024-03-12T04:06:58.029Z,16.50
2024-03-12T04:07:31.330Z,16.70
2024-03-12T04:08:04.828Z,15.80
2024-03-12T04:08:37.968Z,16.40
2024-03-12T04:09:11.122Z,15.20
2024-03-12T04:09:44.504Z,15.30
2024-03-12T04:10:17.763Z,19.30
2024-03-12T04:10:50.746Z,16.20
2024-03-12T04:11:26.858Z,15.10
2024-03-12T04:12:02.405Z,16.10
2024-03-12T04:12:35.527Z,14.40
2024-03-12T04:13:10.646Z,16.00
2024-03-12T04:13:44.042Z,14.50
2024-03-12T04:14:19.281Z,14.90
2024-03-12T04:14:52.680Z,14.80
2024-03-12T04:15:30.190Z,15.00
2024-03-12T04:16:04.635Z,14.70
2024-03-12T04:16:37.910Z,14.90
2024-03-12T04:17:11.355Z,15.60
2024-03-12T04:17:45.620Z,14.40
2024-03-12T04:18:20.173Z,14.90
2024-03-12T04:18:53.884Z,17.50
2024-03-12T04:19:30.748Z,16.00
2024-03-12T04:20:10.414Z,14.70
2024-03-12T04:20:43.325Z,14.40
2024-03-12T04:21:17.385Z,14.30
2024-03-12T04:21:50.445Z,16.10
2024-03-12T04:22:23.386Z,14.20
2024-03-12T04:22:56.955Z,15.40
2024-03-12T04:23:29.950Z,15.80
2024-03-12T04:24:03.171Z,14.00
2024-03-12T04:24:38.241Z,14.10
2024-03-12T04:25:13.535Z,15.70
2024-03-12T04:25:46.568Z,14.70
2024-03-12T04:26:21.088Z,14.80
2024-03-12T04:26:54.102Z,13.60
2024-03-12T04:27:28.574Z,16.10
2024-03-12T04:28:01.622Z,14.40
2024-03-12T04:28:34.673Z,13.80
2024-03-12T04:29:07.556Z,13.90
2024-03-12T04:29:41.305Z,13.40
2024-03-12T04:30:15.169Z,18.00
2024-03-12T04:30:50.248Z,13.60
2024-03-12T04:31:23.365Z,15.50
2024-03-12T04:31:56.328Z,15.00
2024-03-12T04:32:29.349Z,14.40
2024-03-12T04:33:03.007Z,19.00
2024-03-12T04:33:37.430Z,14.00
2024-03-12T04:34:10.827Z,15.20
2024-03-12T04:34:45.571Z,15.50
2024-03-12T04:35:18.836Z,13.50
2024-03-12T04:35:53.327Z,14.10
2024-03-12T04:36:26.296Z,14.80
2024-03-12T04:36:59.868Z,15.50
2024-03-12T04:37:33.354Z,13.50
2024-03-12T04:38:09.189Z,15.00
2024-03-12T04:38:42.337Z,14.10
2024-03-12T04:39:33.792Z,15.00
2024-03-12T04:40:10.656Z,15.00
2024-03-12T04:40:43.964Z,17.00
2024-03-12T04:41:21.873Z,13.60
2024-03-12T04:41:55.168Z,15.60
2024-03-12T04:42:28.449Z,14.50
2024-03-12T04:43:03.627Z,14.10
2024-03-12T04:43:37.554Z,14.60
2024-03-12T04:44:10.687Z,16.80
2024-03-12T04:44:43.858Z,14.50
2024-03-12T04:45:17.096Z,16.90
2024-03-12T04:45:50.081Z,14.30
2024-03-12T04:46:23.121Z,16.10
2024-03-12T04:46:56.295Z,14.70
2024-03-12T04:47:29.267Z,17.80
2024-03-12T04:48:02.328Z,14.30
2024-03-12T04:48:35.603Z,16.50
2024-03-12T04:49:08.893Z,16.00
2024-03-12T04:49:42.180Z,16.20
2024-03-12T04:50:16.409Z,16.00
2024-03-12T04:50:49.453Z,15.90
2024-03-12T04:51:22.466Z,15.10
2024-03-12T04:51:56.372Z,17.80
2024-03-12T04:52:29.532Z,16.40
2024-03-12T04:53:02.510Z,15.40
2024-03-12T04:53:35.844Z,14.50
2024-03-12T04:54:09.382Z,15.00
2024-03-12T04:54:42.975Z,14.50
2024-03-12T04:55:16.109Z,17.20
2024-03-12T04:55:49.122Z,16.20
2024-03-12T04:56:22.473Z,16.00
2024-03-12T04:56:58.173Z,17.90
2024-03-12T04:57:31.145Z,15.40
2024-03-12T04:58:07.521Z,15.90
2024-03-12T04:58:40.769Z,15.60
2024-03-12T04:59:16.910Z,14.90
2024-03-12T04:59:50.011Z,15.50
2024-03-12T05:00:23.231Z,15.90
2024-03-12T05:00:56.597Z,15.90
2024-03-12T05:01:29.850Z,15.00
2024-03-12T05:02:03.002Z,15.60
2024-03-12T05:02:36.114Z,16.30
2024-03-12T05:03:09.106Z,15.80
2024-03-12T05:03:42.218Z,16.40
2024-03-12T05:04:22.729Z,15.50
2024-03-12T05:04:56.714Z,16.20
2024-03-12T05:05:29.675Z,14.80
2024-03-12T05:06:02.658Z,17.00
2024-03-12T05:06:35.859Z,15.90
2024-03-12T05:07:09.279Z,15.40
2024-03-12T05:07:42.380Z,16.10
2024-03-12T05:08:15.390Z,14.60
2024-03-12T05:08:48.671Z,16.10
2024-03-12T05:09:21.626Z,15.50
2024-03-12T05:09:54.642Z,15.50
2024-03-12T05:10:28.245Z,17.40
2024-03-12T05:11:02.689Z,16.30
2024-03-12T05:11:39.329Z,16.50
2024-03-12T05:12:12.437Z,18.10
2024-03-12T05:12:48.610Z,16.40
2024-03-12T05:13:32.797Z,16.20
2024-03-12T05:14:07.230Z,19.20
2024-03-12T05:14:40.526Z,15.10
2024-03-12T05:15:13.826Z,18.20
2024-03-12T05:15:46.865Z,16.50
2024-03-12T05:16:22.036Z,16.80
2024-03-12T05:16:58.107Z,17.40
2024-03-12T05:17:31.408Z,18.40
2024-03-12T05:18:04.989Z,15.80
2024-03-12T05:18:38.053Z,15.80
2024-03-12T05:19:12.869Z,16.00
2024-03-12T05:19:46.155Z,15.90
2024-03-12T05:20:20.055Z,17.80
2024-03-12T05:20:53.416Z,17.40
2024-03-12T05:21:30.708Z,17.60
2024-03-12T05:22:05.104Z,16.70
2024-03-12T05:22:38.356Z,16.50
2024-03-12T05:23:11.860Z,18.50
2024-03-12T05:23:45.361Z,17.70
2024-03-12T05:24:19.244Z,16.20
2024-03-12T05:24:52.461Z,17.20
2024-03-12T05:25:40.146Z,16.20
2024-03-12T05:26:16.636Z,17.70
2024-03-12T05:26:51.256Z,18.40
2024-03-12T05:27:34.941Z,16.20
2024-03-12T05:28:11.721Z,17.90
2024-03-12T05:28:45.415Z,17.80
2024-03-12T05:29:18.944Z,19.00
2024-03-12T05:29:55.344Z,16.20
2024-03-12T05:30:30.211Z,17.50
2024-03-12T05:31:03.542Z,17.50
2024-03-12T05:31:39.549Z,18.00
2024-03-12T05:32:22.591Z,18.70
2024-03-12T05:32:57.345Z,19.10
2024-03-12T05:33:31.408Z,17.60
2024-03-12T05:34:04.572Z,20.10
2024-03-12T05:34:40.726Z,18.50
2024-03-12T05:35:22.942Z,18.60
2024-03-12T05:35:56.269Z,17.50
2024-03-12T05:36:42.086Z,18.40
2024-03-12T05:37:30.457Z,16.60
2024-03-12T05:38:13.008Z,17.20
2024-03-12T05:38:56.166Z,17.10
2024-03-12T05:39:48.736Z,18.90
2024-03-12T05:40:30.936Z,18.80
2024-03-12T05:41:09.887Z,18.20
2024-03-12T05:41:50.569Z,19.10
2024-03-12T05:42:41.741Z,18.60
2024-03-12T05:43:33.221Z,18.20
2024-03-12T05:44:24.658Z,18.20
2024-03-12T05:45:16.377Z,17.60
2024-03-12T05:46:07.975Z,18.00
2024-03-12T05:46:59.669Z,18.20
2024-03-12T05:47:51.454Z,17.00
2024-03-12T05:48:24.523Z,17.10
2024-03-12T05:48:57.912Z,18.90
2024-03-12T05:49:32.150Z,19.70
2024-03-12T05:50:06.720Z,17.80
2024-03-12T05:50:40.370Z,19.60
2024-03-12T05:51:13.486Z,20.40
2024-03-12T05:51:46.749Z,20.40
2024-03-12T05:52:20.420Z,20.20
2024-03-12T05:52:55.193Z,21.70
2024-03-12T05:53:28.493Z,21.40
2024-03-12T05:54:03.549Z,22.30
2024-03-12T05:54:36.688Z,19.00
2024-03-12T05:55:10.053Z,20.00
2024-03-12T05:55:45.865Z,19.80
2024-03-12T05:56:19.656Z,19.20
2024-03-12T05:56:53.868Z,17.80
2024-03-12T05:57:27.098Z,18.70
2024-03-12T05:58:01.173Z,18.30
2024-03-12T05:58:34.353Z,18.20
2024-03-12T05:59:08.589Z,18.90
2024-03-12T05:59:42.930Z,19.90
2024-03-12T06:00:16.098Z,18.80
2024-03-12T06:00:49.990Z,17.90
2024-03-12T06:01:25.456Z,17.70
2024-03-12T06:01:59.349Z,17.60
2024-03-12T06:02:34.651Z,18.10
2024-03-12T06:03:08.129Z,19.90
2024-03-12T06:03:41.415Z,18.00
2024-03-12T06:04:16.299Z,17.70
2024-03-12T06:04:49.353Z,19.90
2024-03-12T06:05:22.349Z,19.70
2024-03-12T06:05:55.362Z,19.30
2024-03-12T06:06:28.571Z,22.30
2024-03-12T06:07:02.989Z,19.70
2024-03-12T06:07:36.382Z,18.90
2024-03-12T06:08:09.320Z,18.20
2024-03-12T06:08:42.373Z,18.70
2024-03-12T06:09:16.236Z,18.80
2024-03-12T06:09:49.237Z,18.80
2024-03-12T06:10:25.435Z,20.50
2024-03-12T06:11:06.067Z,18.70
2024-03-12T06:11:40.953Z,20.10
2024-03-12T06:12:14.234Z,19.60
2024-03-12T06:12:47.680Z,18.90
2024-03-12T06:13:24.145Z,20.10
2024-03-12T06:14:01.346Z,19.50
2024-03-12T06:14:37.360Z,19.10
2024-03-12T06:15:10.443Z,19.10
2024-03-12T06:15:45.553Z,21.20
2024-03-12T06:16:19.715Z,18.20
2024-03-12T06:16:53.109Z,19.80
2024-03-12T06:17:26.596Z,18.40
2024-03-12T06:17:59.631Z,21.10
2024-03-12T06:18:32.745Z,18.40
2024-03-12T06:19:05.776Z,19.00
2024-03-12T06:19:41.145Z,20.90
2024-03-12T06:20:14.241Z,20.10
2024-03-12T06:20:47.439Z,20.00
2024-03-12T06:21:20.370Z,23.10
2024-03-12T06:21:53.378Z,22.60
2024-03-12T06:22:26.482Z,20.90
2024-03-12T06:22:59.404Z,19.70
2024-03-12T06:23:32.474Z,22.10
2024-03-12T06:24:07.019Z,21.60
2024-03-12T06:24:40.907Z,20.20
2024-03-12T06:25:14.713Z,20.70
2024-03-12T06:25:48.403Z,19.50
2024-03-12T06:26:22.467Z,22.40
2024-03-12T06:26:56.422Z,22.90
2024-03-12T06:27:30.376Z,19.10
2024-03-12T06:28:06.814Z,19.00
2024-03-12T06:28:40.220Z,21.70
2024-03-12T06:29:15.191Z,20.40
2024-03-12T06:29:52.108Z,22.70
2024-03-12T06:30:25.015Z,20.70
2024-03-12T06:30:58.468Z,21.30
2024-03-12T06:31:32.526Z,20.90
2024-03-12T06:32:05.441Z,20.00
2024-03-12T06:32:38.493Z,21.00
2024-03-12T06:33:13.448Z,21.50
2024-03-12T06:33:46.662Z,20.80
2024-03-12T06:34:19.789Z,19.20
2024-03-12T06:34:52.859Z,21.40
2024-03-12T06:35:25.831Z,22.60
2024-03-12T06:35:58.887Z,21.40
2024-03-12T06:36:33.619Z,25.50
2024-03-12T06:37:06.883Z,23.70
2024-03-12T06:37:40.148Z,21.40
2024-03-12T06:38:13.091Z,22.70
2024-03-12T06:38:48.362Z,23.00
2024-03-12T06:39:21.709Z,23.90
2024-03-12T06:39:55.579Z,25.60
2024-03-12T06:40:28.842Z,23.40
2024-03-12T06:41:05.034Z,23.60
2024-03-12T06:41:38.152Z,19.50
2024-03-12T06:42:13.820Z,21.80
2024-03-12T06:42:46.975Z,23.00
2024-03-12T06:43:21.327Z,22.60
2024-03-12T06:43:54.569Z,22.40
2024-03-12T06:44:27.609Z,23.60
2024-03-12T06:45:02.394Z,25.50
2024-03-12T06:45:35.984Z,23.70
2024-03-12T06:46:10.766Z,25.60
2024-03-12T06:46:47.034Z,25.70
2024-03-12T06:47:23.558Z,27.50
2024-03-12T06:48:01.663Z,24.70
2024-03-12T06:48:34.819Z,27.60
2024-03-12T06:49:10.568Z,26.20
2024-03-12T06:49:45.826Z,26.80
2024-03-12T06:50:19.661Z,30.20
2024-03-12T06:50:52.916Z,26.20
2024-03-12T06:51:33.102Z,30.00
2024-03-12T06:52:07.992Z,28.80
2024-03-12T06:52:42.908Z,28.10
2024-03-12T06:53:16.218Z,25.00
2024-03-12T06:53:49.130Z,26.30
2024-03-12T06:54:27.814Z,27.90
2024-03-12T06:55:02.932Z,24.70
2024-03-12T06:55:36.968Z,26.70
2024-03-12T06:56:12.622Z,26.60
2024-03-12T06:56:47.750Z,25.30
2024-03-12T06:57:23.456Z,25.20
2024-03-12T06:58:01.581Z,26.60
2024-03-12T06:58:35.550Z,24.70
2024-03-12T06:59:10.226Z,25.90
2024-03-12T06:59:48.475Z,25.30
2024-03-12T07:00:33.548Z,23.00
2024-03-12T07:01:06.569Z,24.30
2024-03-12T07:01:42.330Z,23.80
2024-03-12T07:02:20.144Z,25.20
2024-03-12T07:03:25.768Z,23.00
2024-03-12T07:03:58.856Z,25.20
2024-03-12T07:04:44.679Z,24.20
2024-03-12T07:05:17.978Z,23.80
2024-03-12T07:05:52.134Z,22.50
2024-03-12T07:06:25.461Z,24.10
2024-03-12T07:06:58.379Z,23.10
2024-03-12T07:07:33.958Z,23.20
2024-03-12T07:08:07.345Z,25.00
2024-03-12T07:08:41.069Z,24.20
2024-03-12T07:09:24.242Z,24.30
2024-03-12T07:10:01.013Z,24.20
2024-03-12T07:10:36.877Z,23.10
2024-03-12T07:11:11.785Z,24.80
2024-03-12T07:11:46.238Z,22.90
2024-03-12T07:12:19.898Z,23.60
2024-03-12T07:12:53.593Z,23.50
2024-03-12T07:13:27.728Z,24.20
2024-03-12T07:14:03.698Z,25.10
2024-03-12T07:14:44.737Z,22.90
2024-03-12T07:15:19.433Z,25.90
2024-03-12T07:15:52.555Z,24.70
2024-03-12T07:16:26.814Z,23.40
2024-03-12T07:17:00.828Z,21.70
2024-03-12T07:17:34.513Z,23.70
2024-03-12T07:18:09.088Z,26.30
2024-03-12T07:18:42.472Z,26.00
2024-03-12T07:19:16.630Z,24.40
2024-03-12T07:19:50.748Z,25.60
2024-03-12T07:20:24.171Z,24.30
2024-03-12T07:20:57.498Z,26.90
2024-03-12T07:21:30.668Z,25.10
2024-03-12T07:22:03.913Z,23.90
2024-03-12T07:22:37.876Z,24.70
2024-03-12T07:23:10.873Z,25.10
2024-03-12T07:23:43.840Z,25.20
2024-03-12T07:24:17.084Z,24.90
2024-03-12T07:24:50.158Z,22.70
2024-03-12T07:25:23.166Z,25.10
2024-03-12T07:25:56.975Z,21.90
2024-03-12T07:26:29.961Z,22.30
2024-03-12T07:27:06.680Z,22.20
2024-03-12T07:27:42.774Z,21.60
2024-03-12T07:28:17.375Z,25.20
2024-03-12T07:28:51.570Z,22.20